sensor_id;sensor_type;location;lat;lon;timestamp;P1;durP1;ratioP1;P2;durP2;ratioP2
65971;SDS011;52726;48.852;9.152;2022-10-26T00:02:07;10.55;;;3.22;;
65971;SDS011;52726;48.852;9.152;2022-10-26T00:04:32;8.98;;;2.83;;
65971;SDS011;52726;48.852;9.152;2022-10-26T00:06:57;6.75;;;2.80;;
65971;SDS011;52726;48.852;9.152;2022-10-26T00:09:23;11.60;;;3.42;;
65971;SDS011;52726;48.852;9.152;2022-10-26T00:11:48;4.30;;;2.80;;
65971;SDS011;52726;48.852;9.152;2022-10-26T00:14:14;9.95;;;3.10;;
65971;SDS011;52726;48.852;9.152;2022-10-26T00:16:39;8.98;;;3.00;;
65971;SDS011;52726;48.852;9.152;2022-10-26T00:19:04;10.52;;;2.80;;
65971;SDS011;52726;48.852;9.152;2022-10-26T00:21:30;10.68;;;3.00;;
65971;SDS011;52726;48.852;9.152;2022-10-26T00:23:55;3.63;;;2.20;;
65971;SDS011;52726;48.852;9.152;2022-10-26T00:26:23;7.63;;;3.00;;
65971;SDS011;52726;48.852;9.152;2022-10-26T00:28:51;4.47;;;2.72;;
65971;SDS011;52726;48.852;9.152;2022-10-26T00:31:17;7.32;;;2.78;;
65971;SDS011;52726;48.852;9.152;2022-10-26T00:33:42;4.35;;;2.58;;
65971;SDS011;52726;48.852;9.152;2022-10-26T00:36:08;9.82;;;2.33;;
65971;SDS011;52726;48.852;9.152;2022-10-26T00:38:34;5.00;;;2.72;;
65971;SDS011;52726;48.852;9.152;2022-10-26T00:41:00;3.35;;;2.10;;
65971;SDS011;52726;48.852;9.152;2022-10-26T00:45:51;10.43;;;3.20;;
65971;SDS011;52726;48.852;9.152;2022-10-26T00:50:50;7.15;;;2.95;;
65971;SDS011;52726;48.852;9.152;2022-10-26T00:53:17;6.40;;;3.20;;
65971;SDS011;52726;48.852;9.152;2022-10-26T00:55:44;6.72;;;2.65;;
65971;SDS011;52726;48.852;9.152;2022-10-26T00:58:12;7.88;;;2.75;;
65971;SDS011;52726;48.852;9.152;2022-10-26T01:00:39;6.53;;;2.97;;
65971;SDS011;52726;48.852;9.152;2022-10-26T01:03:06;9.82;;;2.95;;
65971;SDS011;52726;48.852;9.152;2022-10-26T01:05:32;8.63;;;2.80;;
65971;SDS011;52726;48.852;9.152;2022-10-26T01:07:59;3.53;;;2.13;;
65971;SDS011;52726;48.852;9.152;2022-10-26T01:10:26;9.18;;;2.83;;
65971;SDS011;52726;48.852;9.152;2022-10-26T01:12:52;3.75;;;2.15;;
65971;SDS011;52726;48.852;9.152;2022-10-26T01:15:20;4.43;;;2.38;;
65971;SDS011;52726;48.852;9.152;2022-10-26T01:17:53;4.60;;;2.53;;
65971;SDS011;52726;48.852;9.152;2022-10-26T01:28:48;6.47;;;2.55;;
65971;SDS011;52726;48.852;9.152;2022-10-26T01:31:30;11.07;;;2.67;;
65971;SDS011;52726;48.852;9.152;2022-10-26T01:34:11;5.00;;;2.50;;
65971;SDS011;52726;48.852;9.152;2022-10-26T01:36:42;8.30;;;3.22;;
65971;SDS011;52726;48.852;9.152;2022-10-26T01:39:18;5.85;;;2.80;;
65971;SDS011;52726;48.852;9.152;2022-10-26T01:41:54;6.35;;;2.67;;
65971;SDS011;52726;48.852;9.152;2022-10-26T01:44:25;6.85;;;3.08;;
65971;SDS011;52726;48.852;9.152;2022-10-26T01:46:54;5.40;;;2.80;;
65971;SDS011;52726;48.852;9.152;2022-10-26T01:49:24;5.15;;;2.40;;
65971;SDS011;52726;48.852;9.152;2022-10-26T01:51:52;7.60;;;3.20;;
65971;SDS011;52726;48.852;9.152;2022-10-26T01:54:18;3.33;;;2.45;;
65971;SDS011;52726;48.852;9.152;2022-10-26T01:56:44;6.25;;;2.35;;
65971;SDS011;52726;48.852;9.152;2022-10-26T01:59:23;5.65;;;2.80;;
65971;SDS011;52726;48.852;9.152;2022-10-26T02:02:24;7.70;;;2.80;;
65971;SDS011;52726;48.852;9.152;2022-10-26T02:05:14;8.45;;;2.78;;
65971;SDS011;52726;48.852;9.152;2022-10-26T02:16:25;9.07;;;3.10;;
65971;SDS011;52726;48.852;9.152;2022-10-26T02:19:09;6.68;;;3.03;;
65971;SDS011;52726;48.852;9.152;2022-10-26T02:21:52;8.43;;;3.13;;
65971;SDS011;52726;48.852;9.152;2022-10-26T02:24:43;5.47;;;2.85;;
65971;SDS011;52726;48.852;9.152;2022-10-26T02:27:14;17.98;;;3.45;;
65971;SDS011;52726;48.852;9.152;2022-10-26T02:29:44;5.60;;;2.90;;
65971;SDS011;52726;48.852;9.152;2022-10-26T02:32:11;14.23;;;3.72;;
65971;SDS011;52726;48.852;9.152;2022-10-26T02:34:38;10.70;;;3.00;;
65971;SDS011;52726;48.852;9.152;2022-10-26T02:37:07;8.45;;;3.20;;
65971;SDS011;52726;48.852;9.152;2022-10-26T02:39:33;13.07;;;3.45;;
65971;SDS011;52726;48.852;9.152;2022-10-26T02:42:01;12.77;;;2.88;;
65971;SDS011;52726;48.852;9.152;2022-10-26T02:44:39;10.15;;;2.88;;
65971;SDS011;52726;48.852;9.152;2022-10-26T02:47:07;7.85;;;2.40;;
65971;SDS011;52726;48.852;9.152;2022-10-26T02:49:32;10.70;;;2.83;;
65971;SDS011;52726;48.852;9.152;2022-10-26T02:52:03;3.90;;;2.30;;
65971;SDS011;52726;48.852;9.152;2022-10-26T02:54:45;5.60;;;3.25;;
65971;SDS011;52726;48.852;9.152;2022-10-26T02:57:17;6.50;;;2.85;;
65971;SDS011;52726;48.852;9.152;2022-10-26T02:59:47;6.55;;;3.47;;
65971;SDS011;52726;48.852;9.152;2022-10-26T03:02:14;7.05;;;3.10;;
65971;SDS011;52726;48.852;9.152;2022-10-26T03:04:41;5.88;;;2.83;;
65971;SDS011;52726;48.852;9.152;2022-10-26T03:07:07;5.28;;;3.05;;
65971;SDS011;52726;48.852;9.152;2022-10-26T03:09:32;9.15;;;3.10;;
65971;SDS011;52726;48.852;9.152;2022-10-26T03:11:57;20.90;;;3.42;;
65971;SDS011;52726;48.852;9.152;2022-10-26T03:14:23;6.07;;;3.35;;
65971;SDS011;52726;48.852;9.152;2022-10-26T03:16:48;7.53;;;3.10;;
65971;SDS011;52726;48.852;9.152;2022-10-26T03:19:13;2.58;;;2.38;;
65971;SDS011;52726;48.852;9.152;2022-10-26T03:21:39;11.57;;;4.05;;
65971;SDS011;52726;48.852;9.152;2022-10-26T03:24:06;7.43;;;3.17;;
65971;SDS011;52726;48.852;9.152;2022-10-26T03:26:32;9.02;;;3.40;;
65971;SDS011;52726;48.852;9.152;2022-10-26T03:28:57;9.30;;;3.03;;
65971;SDS011;52726;48.852;9.152;2022-10-26T03:31:22;5.40;;;2.58;;
65971;SDS011;52726;48.852;9.152;2022-10-26T03:33:48;9.48;;;3.17;;
65971;SDS011;52726;48.852;9.152;2022-10-26T03:36:13;4.68;;;2.80;;
65971;SDS011;52726;48.852;9.152;2022-10-26T03:38:38;4.45;;;2.80;;
65971;SDS011;52726;48.852;9.152;2022-10-26T03:41:04;5.40;;;2.80;;
65971;SDS011;52726;48.852;9.152;2022-10-26T03:43:29;7.15;;;3.40;;
65971;SDS011;52726;48.852;9.152;2022-10-26T03:45:55;5.10;;;2.83;;
65971;SDS011;52726;48.852;9.152;2022-10-26T03:48:20;11.88;;;3.92;;
65971;SDS011;52726;48.852;9.152;2022-10-26T03:50:45;6.78;;;3.88;;
65971;SDS011;52726;48.852;9.152;2022-10-26T03:53:10;5.68;;;3.15;;
65971;SDS011;52726;48.852;9.152;2022-10-26T03:55:36;6.97;;;3.05;;
65971;SDS011;52726;48.852;9.152;2022-10-26T03:58:02;7.53;;;3.55;;
65971;SDS011;52726;48.852;9.152;2022-10-26T04:00:28;9.98;;;3.28;;
65971;SDS011;52726;48.852;9.152;2022-10-26T04:02:55;8.35;;;3.00;;
65971;SDS011;52726;48.852;9.152;2022-10-26T04:05:21;6.93;;;2.88;;
65971;SDS011;52726;48.852;9.152;2022-10-26T04:07:51;11.75;;;3.17;;
65971;SDS011;52726;48.852;9.152;2022-10-26T04:10:21;5.13;;;3.08;;
65971;SDS011;52726;48.852;9.152;2022-10-26T04:12:47;9.48;;;3.60;;
65971;SDS011;52726;48.852;9.152;2022-10-26T04:15:13;6.78;;;2.80;;
65971;SDS011;52726;48.852;9.152;2022-10-26T04:17:39;10.77;;;3.08;;
65971;SDS011;52726;48.852;9.152;2022-10-26T04:20:04;5.70;;;2.75;;
65971;SDS011;52726;48.852;9.152;2022-10-26T04:22:30;6.30;;;2.97;;
65971;SDS011;52726;48.852;9.152;2022-10-26T04:24:55;11.13;;;2.90;;
65971;SDS011;52726;48.852;9.152;2022-10-26T04:27:21;3.45;;;2.40;;
65971;SDS011;52726;48.852;9.152;2022-10-26T04:29:46;4.93;;;2.60;;
65971;SDS011;52726;48.852;9.152;2022-10-26T04:32:11;5.63;;;2.83;;
65971;SDS011;52726;48.852;9.152;2022-10-26T04:34:37;5.70;;;2.72;;
65971;SDS011;52726;48.852;9.152;2022-10-26T04:37:02;13.57;;;2.85;;
65971;SDS011;52726;48.852;9.152;2022-10-26T04:39:28;7.35;;;2.67;;
65971;SDS011;52726;48.852;9.152;2022-10-26T04:41:53;6.55;;;2.75;;
65971;SDS011;52726;48.852;9.152;2022-10-26T04:44:18;8.23;;;2.97;;
65971;SDS011;52726;48.852;9.152;2022-10-26T04:46:44;7.93;;;2.70;;
65971;SDS011;52726;48.852;9.152;2022-10-26T04:49:09;8.27;;;2.92;;
65971;SDS011;52726;48.852;9.152;2022-10-26T04:51:35;10.20;;;2.70;;
65971;SDS011;52726;48.852;9.152;2022-10-26T04:54:00;5.22;;;2.80;;
65971;SDS011;52726;48.852;9.152;2022-10-26T04:56:27;5.70;;;3.17;;
65971;SDS011;52726;48.852;9.152;2022-10-26T04:58:52;7.07;;;3.30;;
65971;SDS011;52726;48.852;9.152;2022-10-26T05:01:18;7.40;;;3.30;;
65971;SDS011;52726;48.852;9.152;2022-10-26T05:03:43;5.97;;;2.80;;
65971;SDS011;52726;48.852;9.152;2022-10-26T05:06:09;4.20;;;2.83;;
65971;SDS011;52726;48.852;9.152;2022-10-26T05:08:34;5.15;;;3.10;;
65971;SDS011;52726;48.852;9.152;2022-10-26T05:10:59;5.70;;;3.30;;
65971;SDS011;52726;48.852;9.152;2022-10-26T05:13:25;10.75;;;4.20;;
65971;SDS011;52726;48.852;9.152;2022-10-26T05:15:53;5.25;;;3.10;;
65971;SDS011;52726;48.852;9.152;2022-10-26T05:18:18;5.05;;;2.85;;
65971;SDS011;52726;48.852;9.152;2022-10-26T05:20:44;8.63;;;2.83;;
65971;SDS011;52726;48.852;9.152;2022-10-26T05:23:10;9.80;;;3.03;;
65971;SDS011;52726;48.852;9.152;2022-10-26T05:25:36;3.53;;;2.55;;
65971;SDS011;52726;48.852;9.152;2022-10-26T05:28:03;6.68;;;2.50;;
65971;SDS011;52726;48.852;9.152;2022-10-26T05:30:29;6.07;;;2.53;;
65971;SDS011;52726;48.852;9.152;2022-10-26T05:32:59;5.50;;;2.40;;
65971;SDS011;52726;48.852;9.152;2022-10-26T05:35:27;6.22;;;2.10;;
65971;SDS011;52726;48.852;9.152;2022-10-26T05:37:52;5.22;;;2.53;;
65971;SDS011;52726;48.852;9.152;2022-10-26T05:40:18;9.88;;;2.65;;
65971;SDS011;52726;48.852;9.152;2022-10-26T05:42:44;8.55;;;2.60;;
65971;SDS011;52726;48.852;9.152;2022-10-26T05:45:10;10.70;;;2.60;;
65971;SDS011;52726;48.852;9.152;2022-10-26T05:47:39;8.68;;;2.53;;
65971;SDS011;52726;48.852;9.152;2022-10-26T05:50:09;6.38;;;2.00;;
65971;SDS011;52726;48.852;9.152;2022-10-26T05:52:39;7.45;;;2.42;;
65971;SDS011;52726;48.852;9.152;2022-10-26T05:55:06;5.63;;;2.40;;
65971;SDS011;52726;48.852;9.152;2022-10-26T05:57:32;7.05;;;2.05;;
65971;SDS011;52726;48.852;9.152;2022-10-26T05:59:58;3.00;;;2.00;;
65971;SDS011;52726;48.852;9.152;2022-10-26T06:04:49;6.03;;;2.10;;
65971;SDS011;52726;48.852;9.152;2022-10-26T06:07:18;4.07;;;2.53;;
65971;SDS011;52726;48.852;9.152;2022-10-26T06:09:45;3.97;;;2.30;;
65971;SDS011;52726;48.852;9.152;2022-10-26T06:12:11;5.03;;;2.30;;
65971;SDS011;52726;48.852;9.152;2022-10-26T06:14:37;6.38;;;2.15;;
65971;SDS011;52726;48.852;9.152;2022-10-26T06:19:46;4.10;;;2.10;;
65971;SDS011;52726;48.852;9.152;2022-10-26T06:25:20;4.85;;;1.85;;
65971;SDS011;52726;48.852;9.152;2022-10-26T06:30:44;4.47;;;2.42;;
65971;SDS011;52726;48.852;9.152;2022-10-26T06:33:09;3.90;;;1.77;;
65971;SDS011;52726;48.852;9.152;2022-10-26T06:38:08;5.32;;;2.17;;
65971;SDS011;52726;48.852;9.152;2022-10-26T06:40:38;9.25;;;2.03;;
65971;SDS011;52726;48.852;9.152;2022-10-26T06:43:19;2.75;;;1.95;;
65971;SDS011;52726;48.852;9.152;2022-10-26T06:45:51;5.53;;;2.10;;
65971;SDS011;52726;48.852;9.152;2022-10-26T06:48:24;3.70;;;2.38;;
65971;SDS011;52726;48.852;9.152;2022-10-26T06:50:52;9.25;;;2.50;;
65971;SDS011;52726;48.852;9.152;2022-10-26T06:53:32;5.68;;;2.20;;
65971;SDS011;52726;48.852;9.152;2022-10-26T06:56:03;7.18;;;2.60;;
65971;SDS011;52726;48.852;9.152;2022-10-26T06:58:31;4.13;;;2.40;;
65971;SDS011;52726;48.852;9.152;2022-10-26T07:00:59;7.97;;;2.67;;
65971;SDS011;52726;48.852;9.152;2022-10-26T07:03:25;6.57;;;2.45;;
65971;SDS011;52726;48.852;9.152;2022-10-26T07:05:50;17.95;;;2.70;;
65971;SDS011;52726;48.852;9.152;2022-10-26T07:08:16;8.73;;;2.17;;
65971;SDS011;52726;48.852;9.152;2022-10-26T07:10:42;5.13;;;2.00;;
65971;SDS011;52726;48.852;9.152;2022-10-26T07:13:07;6.35;;;2.33;;
65971;SDS011;52726;48.852;9.152;2022-10-26T07:15:34;8.85;;;2.40;;
65971;SDS011;52726;48.852;9.152;2022-10-26T07:18:01;5.05;;;2.22;;
65971;SDS011;52726;48.852;9.152;2022-10-26T07:20:29;4.20;;;2.08;;
65971;SDS011;52726;48.852;9.152;2022-10-26T07:22:56;4.53;;;2.22;;
65971;SDS011;52726;48.852;9.152;2022-10-26T07:25:22;6.65;;;2.30;;
65971;SDS011;52726;48.852;9.152;2022-10-26T07:27:49;4.15;;;2.10;;
65971;SDS011;52726;48.852;9.152;2022-10-26T07:30:14;3.47;;;2.20;;
65971;SDS011;52726;48.852;9.152;2022-10-26T07:32:40;3.47;;;2.15;;
65971;SDS011;52726;48.852;9.152;2022-10-26T07:35:06;5.95;;;2.20;;
65971;SDS011;52726;48.852;9.152;2022-10-26T07:37:31;5.45;;;2.50;;
65971;SDS011;52726;48.852;9.152;2022-10-26T07:39:57;4.35;;;2.47;;
65971;SDS011;52726;48.852;9.152;2022-10-26T07:42:22;7.47;;;2.65;;
65971;SDS011;52726;48.852;9.152;2022-10-26T07:44:47;5.15;;;2.65;;
65971;SDS011;52726;48.852;9.152;2022-10-26T07:47:13;7.72;;;3.17;;
65971;SDS011;52726;48.852;9.152;2022-10-26T07:49:38;11.00;;;3.42;;
65971;SDS011;52726;48.852;9.152;2022-10-26T07:52:04;7.97;;;2.97;;
65971;SDS011;52726;48.852;9.152;2022-10-26T07:54:30;6.03;;;2.92;;
65971;SDS011;52726;48.852;9.152;2022-10-26T07:56:56;8.27;;;2.85;;
65971;SDS011;52726;48.852;9.152;2022-10-26T07:59:21;7.35;;;3.20;;
65971;SDS011;52726;48.852;9.152;2022-10-26T08:01:47;7.25;;;3.25;;
65971;SDS011;52726;48.852;9.152;2022-10-26T08:04:12;4.95;;;3.00;;
65971;SDS011;52726;48.852;9.152;2022-10-26T08:06:39;5.38;;;3.17;;
65971;SDS011;52726;48.852;9.152;2022-10-26T08:09:04;9.98;;;3.78;;
65971;SDS011;52726;48.852;9.152;2022-10-26T08:11:30;4.97;;;3.03;;
65971;SDS011;52726;48.852;9.152;2022-10-26T08:13:55;6.53;;;2.97;;
65971;SDS011;52726;48.852;9.152;2022-10-26T08:16:21;3.55;;;2.40;;
65971;SDS011;52726;48.852;9.152;2022-10-26T08:18:47;7.93;;;2.22;;
65971;SDS011;52726;48.852;9.152;2022-10-26T08:21:13;5.15;;;1.98;;
65971;SDS011;52726;48.852;9.152;2022-10-26T08:23:39;4.38;;;1.60;;
65971;SDS011;52726;48.852;9.152;2022-10-26T08:26:05;12.23;;;2.10;;
65971;SDS011;52726;48.852;9.152;2022-10-26T08:28:30;3.85;;;1.98;;
65971;SDS011;52726;48.852;9.152;2022-10-26T08:30:55;1.95;;;1.45;;
65971;SDS011;52726;48.852;9.152;2022-10-26T08:33:21;3.22;;;1.75;;
65971;SDS011;52726;48.852;9.152;2022-10-26T08:35:53;7.00;;;1.85;;
65971;SDS011;52726;48.852;9.152;2022-10-26T08:38:20;7.07;;;2.20;;
65971;SDS011;52726;48.852;9.152;2022-10-26T08:40:45;2.92;;;2.00;;
65971;SDS011;52726;48.852;9.152;2022-10-26T08:43:21;3.28;;;1.55;;
65971;SDS011;52726;48.852;9.152;2022-10-26T08:48:31;4.07;;;1.50;;
65971;SDS011;52726;48.852;9.152;2022-10-26T08:51:05;3.38;;;1.98;;
65971;SDS011;52726;48.852;9.152;2022-10-26T08:53:37;7.45;;;1.63;;
65971;SDS011;52726;48.852;9.152;2022-10-26T08:56:21;2.63;;;1.77;;
65971;SDS011;52726;48.852;9.152;2022-10-26T08:59:00;3.72;;;1.42;;
65971;SDS011;52726;48.852;9.152;2022-10-26T09:01:32;4.10;;;1.70;;
65971;SDS011;52726;48.852;9.152;2022-10-26T09:03:58;4.15;;;1.73;;
65971;SDS011;52726;48.852;9.152;2022-10-26T09:06:40;2.92;;;1.60;;
65971;SDS011;52726;48.852;9.152;2022-10-26T09:09:22;2.72;;;1.45;;
65971;SDS011;52726;48.852;9.152;2022-10-26T09:12:06;5.80;;;1.60;;
65971;SDS011;52726;48.852;9.152;2022-10-26T09:23:31;3.88;;;1.88;;
65971;SDS011;52726;48.852;9.152;2022-10-26T09:26:04;4.35;;;1.70;;
65971;SDS011;52726;48.852;9.152;2022-10-26T09:28:48;4.97;;;1.40;;
65971;SDS011;52726;48.852;9.152;2022-10-26T09:31:15;12.57;;;2.00;;
65971;SDS011;52726;48.852;9.152;2022-10-26T09:33:41;4.32;;;1.50;;
65971;SDS011;52726;48.852;9.152;2022-10-26T09:36:07;6.65;;;1.95;;
65971;SDS011;52726;48.852;9.152;2022-10-26T09:38:43;3.03;;;1.52;;
65971;SDS011;52726;48.852;9.152;2022-10-26T09:44:25;3.00;;;1.70;;
65971;SDS011;52726;48.852;9.152;2022-10-26T09:49:46;4.68;;;1.58;;
65971;SDS011;52726;48.852;9.152;2022-10-26T09:52:17;6.68;;;1.70;;
65971;SDS011;52726;48.852;9.152;2022-10-26T09:54:42;6.95;;;1.50;;
65971;SDS011;52726;48.852;9.152;2022-10-26T09:57:08;4.20;;;1.58;;
65971;SDS011;52726;48.852;9.152;2022-10-26T09:59:37;4.15;;;1.63;;
65971;SDS011;52726;48.852;9.152;2022-10-26T10:02:30;6.57;;;1.75;;
65971;SDS011;52726;48.852;9.152;2022-10-26T10:07:49;3.90;;;2.25;;
65971;SDS011;52726;48.852;9.152;2022-10-26T10:10:16;3.25;;;1.80;;
65971;SDS011;52726;48.852;9.152;2022-10-26T10:12:43;7.38;;;1.70;;
65971;SDS011;52726;48.852;9.152;2022-10-26T10:15:18;6.50;;;2.35;;
65971;SDS011;52726;48.852;9.152;2022-10-26T10:17:49;5.65;;;1.73;;
65971;SDS011;52726;48.852;9.152;2022-10-26T10:20:28;4.28;;;1.73;;
65971;SDS011;52726;48.852;9.152;2022-10-26T10:22:56;4.38;;;2.03;;
65971;SDS011;52726;48.852;9.152;2022-10-26T10:27:58;5.65;;;1.90;;
65971;SDS011;52726;48.852;9.152;2022-10-26T10:30:28;8.30;;;1.67;;
65971;SDS011;52726;48.852;9.152;2022-10-26T10:35:36;5.57;;;1.60;;
65971;SDS011;52726;48.852;9.152;2022-10-26T10:38:19;2.80;;;1.60;;
65971;SDS011;52726;48.852;9.152;2022-10-26T10:40:56;2.85;;;1.65;;
65971;SDS011;52726;48.852;9.152;2022-10-26T10:43:22;3.03;;;1.50;;
65971;SDS011;52726;48.852;9.152;2022-10-26T10:45:50;4.72;;;1.70;;
65971;SDS011;52726;48.852;9.152;2022-10-26T10:56:01;7.03;;;2.20;;
65971;SDS011;52726;48.852;9.152;2022-10-26T10:58:34;8.55;;;2.00;;
65971;SDS011;52726;48.852;9.152;2022-10-26T11:01:13;6.00;;;1.60;;
65971;SDS011;52726;48.852;9.152;2022-10-26T11:03:55;12.13;;;1.63;;
65971;SDS011;52726;48.852;9.152;2022-10-26T11:06:26;7.47;;;1.60;;
65971;SDS011;52726;48.852;9.152;2022-10-26T11:09:04;7.85;;;1.80;;
65971;SDS011;52726;48.852;9.152;2022-10-26T11:11:35;3.67;;;1.55;;
65971;SDS011;52726;48.852;9.152;2022-10-26T11:16:52;5.25;;;1.40;;
65971;SDS011;52726;48.852;9.152;2022-10-26T11:21:49;4.55;;;1.83;;
65971;SDS011;52726;48.852;9.152;2022-10-26T11:24:20;3.33;;;1.40;;
65971;SDS011;52726;48.852;9.152;2022-10-26T11:26:51;4.55;;;1.60;;
65971;SDS011;52726;48.852;9.152;2022-10-26T11:32:27;6.90;;;1.40;;
65971;SDS011;52726;48.852;9.152;2022-10-26T11:37:38;6.18;;;2.15;;
65971;SDS011;52726;48.852;9.152;2022-10-26T11:43:14;3.30;;;1.40;;
65971;SDS011;52726;48.852;9.152;2022-10-26T11:45:56;2.33;;;1.40;;
65971;SDS011;52726;48.852;9.152;2022-10-26T11:48:39;2.10;;;0.90;;
65971;SDS011;52726;48.852;9.152;2022-10-26T11:51:19;0.73;;;0.73;;
65971;SDS011;52726;48.852;9.152;2022-10-26T11:53:46;3.60;;;0.98;;
65971;SDS011;52726;48.852;9.152;2022-10-26T11:56:21;3.63;;;1.10;;
65971;SDS011;52726;48.852;9.152;2022-10-26T11:58:59;3.97;;;1.30;;
65971;SDS011;52726;48.852;9.152;2022-10-26T12:01:25;7.15;;;1.40;;
65971;SDS011;52726;48.852;9.152;2022-10-26T12:03:53;2.50;;;1.13;;
65971;SDS011;52726;48.852;9.152;2022-10-26T12:06:23;3.42;;;1.65;;
65971;SDS011;52726;48.852;9.152;2022-10-26T12:09:02;4.38;;;1.73;;
65971;SDS011;52726;48.852;9.152;2022-10-26T12:17:02;3.88;;;1.75;;
65971;SDS011;52726;48.852;9.152;2022-10-26T12:22:13;1.55;;;0.85;;
65971;SDS011;52726;48.852;9.152;2022-10-26T12:24:42;5.10;;;1.60;;
65971;SDS011;52726;48.852;9.152;2022-10-26T12:27:27;4.97;;;1.58;;
65971;SDS011;52726;48.852;9.152;2022-10-26T12:41:22;3.50;;;1.30;;
65971;SDS011;52726;48.852;9.152;2022-10-26T12:43:45;5.43;;;1.25;;
65971;SDS011;52726;48.852;9.152;2022-10-26T12:53:51;3.83;;;1.52;;
65971;SDS011;52726;48.852;9.152;2022-10-26T13:01:54;1.30;;;1.17;;
65971;SDS011;52726;48.852;9.152;2022-10-26T13:07:21;4.25;;;1.27;;
65971;SDS011;52726;48.852;9.152;2022-10-26T13:12:37;10.43;;;1.90;;
65971;SDS011;52726;48.852;9.152;2022-10-26T13:15:19;2.90;;;1.60;;
65971;SDS011;52726;48.852;9.152;2022-10-26T13:20:30;7.07;;;1.90;;
65971;SDS011;52726;48.852;9.152;2022-10-26T13:22:56;7.05;;;1.50;;
65971;SDS011;52726;48.852;9.152;2022-10-26T13:25:25;10.75;;;1.77;;
65971;SDS011;52726;48.852;9.152;2022-10-26T13:28:04;4.45;;;2.28;;
65971;SDS011;52726;48.852;9.152;2022-10-26T13:33:01;4.82;;;1.75;;
65971;SDS011;52726;48.852;9.152;2022-10-26T13:35:27;3.42;;;1.42;;
65971;SDS011;52726;48.852;9.152;2022-10-26T13:37:53;4.97;;;1.48;;
65971;SDS011;52726;48.852;9.152;2022-10-26T13:40:20;4.18;;;1.42;;
65971;SDS011;52726;48.852;9.152;2022-10-26T13:42:49;2.83;;;1.30;;
65971;SDS011;52726;48.852;9.152;2022-10-26T13:45:19;8.13;;;1.95;;
65971;SDS011;52726;48.852;9.152;2022-10-26T13:47:57;7.68;;;1.60;;
65971;SDS011;52726;48.852;9.152;2022-10-26T13:50:30;3.70;;;1.30;;
65971;SDS011;52726;48.852;9.152;2022-10-26T13:52:59;4.30;;;1.77;;
65971;SDS011;52726;48.852;9.152;2022-10-26T13:55:35;4.53;;;1.45;;
65971;SDS011;52726;48.852;9.152;2022-10-26T13:58:16;5.88;;;1.42;;
65971;SDS011;52726;48.852;9.152;2022-10-26T14:03:34;4.15;;;1.55;;
65971;SDS011;52726;48.852;9.152;2022-10-26T14:06:04;5.38;;;1.80;;
65971;SDS011;52726;48.852;9.152;2022-10-26T14:08:32;3.22;;;1.20;;
65971;SDS011;52726;48.852;9.152;2022-10-26T14:10:58;4.07;;;1.58;;
65971;SDS011;52726;48.852;9.152;2022-10-26T14:13:24;2.05;;;1.48;;
65971;SDS011;52726;48.852;9.152;2022-10-26T14:15:52;4.03;;;1.52;;
65971;SDS011;52726;48.852;9.152;2022-10-26T14:18:29;4.70;;;1.88;;
65971;SDS011;52726;48.852;9.152;2022-10-26T14:20:57;6.82;;;1.73;;
65971;SDS011;52726;48.852;9.152;2022-10-26T14:23:35;4.25;;;1.50;;
65971;SDS011;52726;48.852;9.152;2022-10-26T14:26:04;6.00;;;1.50;;
65971;SDS011;52726;48.852;9.152;2022-10-26T14:28:31;6.13;;;1.95;;
65971;SDS011;52726;48.852;9.152;2022-10-26T14:31:10;6.10;;;1.90;;
65971;SDS011;52726;48.852;9.152;2022-10-26T14:33:52;7.70;;;1.80;;
65971;SDS011;52726;48.852;9.152;2022-10-26T14:36:20;4.70;;;1.60;;
65971;SDS011;52726;48.852;9.152;2022-10-26T14:38:52;10.00;;;1.73;;
65971;SDS011;52726;48.852;9.152;2022-10-26T14:41:22;11.85;;;1.63;;
65971;SDS011;52726;48.852;9.152;2022-10-26T14:43:50;7.15;;;1.90;;
65971;SDS011;52726;48.852;9.152;2022-10-26T14:46:17;4.60;;;1.40;;
65971;SDS011;52726;48.852;9.152;2022-10-26T14:48:51;5.78;;;1.65;;
65971;SDS011;52726;48.852;9.152;2022-10-26T14:51:25;5.05;;;1.40;;
65971;SDS011;52726;48.852;9.152;2022-10-26T14:53:58;6.38;;;1.40;;
65971;SDS011;52726;48.852;9.152;2022-10-26T14:59:08;7.20;;;2.20;;
65971;SDS011;52726;48.852;9.152;2022-10-26T15:01:49;8.10;;;1.65;;
65971;SDS011;52726;48.852;9.152;2022-10-26T15:04:25;3.13;;;1.48;;
65971;SDS011;52726;48.852;9.152;2022-10-26T15:06:51;5.03;;;1.67;;
65971;SDS011;52726;48.852;9.152;2022-10-26T15:09:30;6.22;;;1.55;;
65971;SDS011;52726;48.852;9.152;2022-10-26T15:12:01;8.15;;;1.52;;
65971;SDS011;52726;48.852;9.152;2022-10-26T15:14:28;4.00;;;1.58;;
65971;SDS011;52726;48.852;9.152;2022-10-26T15:16:55;6.88;;;1.50;;
65971;SDS011;52726;48.852;9.152;2022-10-26T15:19:22;7.68;;;1.77;;
65971;SDS011;52726;48.852;9.152;2022-10-26T15:21:49;5.53;;;1.58;;
65971;SDS011;52726;48.852;9.152;2022-10-26T15:26:44;5.97;;;1.58;;
65971;SDS011;52726;48.852;9.152;2022-10-26T15:32:03;4.57;;;1.40;;
65971;SDS011;52726;48.852;9.152;2022-10-26T15:34:40;6.90;;;1.67;;
65971;SDS011;52726;48.852;9.152;2022-10-26T15:37:06;8.43;;;1.50;;
65971;SDS011;52726;48.852;9.152;2022-10-26T15:39:32;6.43;;;1.10;;
65971;SDS011;52726;48.852;9.152;2022-10-26T15:41:57;6.32;;;1.75;;
65971;SDS011;52726;48.852;9.152;2022-10-26T15:44:24;7.07;;;1.50;;
65971;SDS011;52726;48.852;9.152;2022-10-26T15:46:49;5.90;;;1.55;;
65971;SDS011;52726;48.852;9.152;2022-10-26T15:49:16;9.60;;;1.70;;
65971;SDS011;52726;48.852;9.152;2022-10-26T15:51:46;5.20;;;1.27;;
65971;SDS011;52726;48.852;9.152;2022-10-26T15:54:12;3.08;;;1.23;;
65971;SDS011;52726;48.852;9.152;2022-10-26T15:56:38;7.15;;;1.38;;
65971;SDS011;52726;48.852;9.152;2022-10-26T15:59:17;6.35;;;1.50;;
65971;SDS011;52726;48.852;9.152;2022-10-26T16:01:43;7.80;;;1.60;;
65971;SDS011;52726;48.852;9.152;2022-10-26T16:04:09;2.67;;;1.23;;
65971;SDS011;52726;48.852;9.152;2022-10-26T16:06:36;6.32;;;1.38;;
65971;SDS011;52726;48.852;9.152;2022-10-26T16:09:04;4.78;;;1.45;;
65971;SDS011;52726;48.852;9.152;2022-10-26T16:11:31;13.35;;;1.88;;
65971;SDS011;52726;48.852;9.152;2022-10-26T16:13:57;6.43;;;1.50;;
65971;SDS011;52726;48.852;9.152;2022-10-26T16:16:23;20.63;;;2.55;;
65971;SDS011;52726;48.852;9.152;2022-10-26T16:18:51;11.70;;;1.85;;
65971;SDS011;52726;48.852;9.152;2022-10-26T16:21:18;14.35;;;1.98;;
65971;SDS011;52726;48.852;9.152;2022-10-26T16:23:46;8.85;;;1.52;;
65971;SDS011;52726;48.852;9.152;2022-10-26T16:26:13;6.95;;;1.50;;
65971;SDS011;52726;48.852;9.152;2022-10-26T16:28:38;9.57;;;1.63;;
65971;SDS011;52726;48.852;9.152;2022-10-26T16:31:05;5.05;;;1.58;;
65971;SDS011;52726;48.852;9.152;2022-10-26T16:33:32;3.95;;;1.70;;
65971;SDS011;52726;48.852;9.152;2022-10-26T16:35:59;3.33;;;1.63;;
65971;SDS011;52726;48.852;9.152;2022-10-26T16:38:25;6.80;;;1.52;;
65971;SDS011;52726;48.852;9.152;2022-10-26T16:41:01;8.07;;;2.08;;
65971;SDS011;52726;48.852;9.152;2022-10-26T16:43:27;7.57;;;2.00;;
65971;SDS011;52726;48.852;9.152;2022-10-26T16:45:55;5.30;;;1.60;;
65971;SDS011;52726;48.852;9.152;2022-10-26T16:48:20;6.82;;;2.22;;
65971;SDS011;52726;48.852;9.152;2022-10-26T16:50:46;3.13;;;1.45;;
65971;SDS011;52726;48.852;9.152;2022-10-26T16:53:11;4.30;;;2.05;;
65971;SDS011;52726;48.852;9.152;2022-10-26T16:55:36;4.88;;;1.42;;
65971;SDS011;52726;48.852;9.152;2022-10-26T16:58:02;5.05;;;1.50;;
65971;SDS011;52726;48.852;9.152;2022-10-26T17:00:27;2.88;;;1.52;;
65971;SDS011;52726;48.852;9.152;2022-10-26T17:02:53;8.88;;;1.80;;
65971;SDS011;52726;48.852;9.152;2022-10-26T17:05:18;4.15;;;1.83;;
65971;SDS011;52726;48.852;9.152;2022-10-26T17:07:45;5.28;;;1.45;;
65971;SDS011;52726;48.852;9.152;2022-10-26T17:10:11;4.38;;;2.08;;
65971;SDS011;52726;48.852;9.152;2022-10-26T17:12:36;4.35;;;1.85;;
65971;SDS011;52726;48.852;9.152;2022-10-26T17:15:02;8.57;;;1.85;;